sensor_id;sensor_type;location;lat;lon;timestamp;temperature;humidity
9941;DHT22;5009;50.656;7.188;2022-08-23T00:01:04;20.50;91.90
9941;DHT22;5009;50.656;7.188;2022-08-23T00:03:30;20.40;92.20
9941;DHT22;5009;50.656;7.188;2022-08-23T00:05:55;20.40;92.50
9941;DHT22;5009;50.656;7.188;2022-08-23T00:08:21;20.30;92.90
9941;DHT22;5009;50.656;7.188;2022-08-23T00:10:47;20.30;93.30
9941;DHT22;5009;50.656;7.188;2022-08-23T00:13:12;20.10;93.50
9941;DHT22;5009;50.656;7.188;2022-08-23T00:15:38;20.10;93.70
9941;DHT22;5009;50.656;7.188;2022-08-23T00:18:03;20.10;93.90
9941;DHT22;5009;50.656;7.188;2022-08-23T00:20:29;20.00;93.80
9941;DHT22;5009;50.656;7.188;2022-08-23T00:22:54;20.00;94.00
9941;DHT22;5009;50.656;7.188;2022-08-23T00:25:21;20.00;94.20
9941;DHT22;5009;50.656;7.188;2022-08-23T00:27:47;19.90;94.10
9941;DHT22;5009;50.656;7.188;2022-08-23T00:30:14;19.90;94.20
9941;DHT22;5009;50.656;7.188;2022-08-23T00:32:40;19.80;94.10
9941;DHT22;5009;50.656;7.188;2022-08-23T00:35:07;19.80;94.50
9941;DHT22;5009;50.656;7.188;2022-08-23T00:37:34;19.80;94.90
9941;DHT22;5009;50.656;7.188;2022-08-23T00:40:01;19.70;95.20
9941;DHT22;5009;50.656;7.188;2022-08-23T00:45:35;19.70;95.70
9941;DHT22;5009;50.656;7.188;2022-08-23T00:48:22;19.60;96.10
9941;DHT22;5009;50.656;7.188;2022-08-23T00:53:26;19.50;96.30
9941;DHT22;5009;50.656;7.188;2022-08-23T00:55:57;19.50;96.40
9941;DHT22;5009;50.656;7.188;2022-08-23T00:58:23;19.40;96.60
9941;DHT22;5009;50.656;7.188;2022-08-23T01:00:51;19.40;96.80
9941;DHT22;5009;50.656;7.188;2022-08-23T01:03:19;19.40;97.20
9941;DHT22;5009;50.656;7.188;2022-08-23T01:06:08;19.30;97.40
9941;DHT22;5009;50.656;7.188;2022-08-23T01:08:37;19.30;98.00
9941;DHT22;5009;50.656;7.188;2022-08-23T01:11:18;19.20;98.00
9941;DHT22;5009;50.656;7.188;2022-08-23T01:13:55;19.20;98.00
9941;DHT22;5009;50.656;7.188;2022-08-23T01:16:27;19.20;98.20
9941;DHT22;5009;50.656;7.188;2022-08-23T01:18:59;19.10;98.40
9941;DHT22;5009;50.656;7.188;2022-08-23T01:21:39;19.00;98.30
9941;DHT22;5009;50.656;7.188;2022-08-23T01:24:06;19.00;98.60
9941;DHT22;5009;50.656;7.188;2022-08-23T01:26:32;18.90;98.40
9941;DHT22;5009;50.656;7.188;2022-08-23T01:29:01;18.90;98.50
9941;DHT22;5009;50.656;7.188;2022-08-23T01:31:28;18.80;99.50
9941;DHT22;5009;50.656;7.188;2022-08-23T01:33:59;18.70;99.90
9941;DHT22;5009;50.656;7.188;2022-08-23T01:36:24;18.70;99.90
9941;DHT22;5009;50.656;7.188;2022-08-23T01:38:51;18.80;99.90
9941;DHT22;5009;50.656;7.188;2022-08-23T01:41:16;18.80;99.90
9941;DHT22;5009;50.656;7.188;2022-08-23T01:43:42;18.70;99.90
9941;DHT22;5009;50.656;7.188;2022-08-23T01:46:14;18.60;99.90
9941;DHT22;5009;50.656;7.188;2022-08-23T01:48:43;18.50;99.80
9941;DHT22;5009;50.656;7.188;2022-08-23T01:51:10;18.50;99.50
9941;DHT22;5009;50.656;7.188;2022-08-23T01:53:35;18.50;99.80
9941;DHT22;5009;50.656;7.188;2022-08-23T01:56:01;18.60;99.90
9941;DHT22;5009;50.656;7.188;2022-08-23T01:58:30;18.50;99.90
9941;DHT22;5009;50.656;7.188;2022-08-23T02:00:56;18.50;99.90
9941;DHT22;5009;50.656;7.188;2022-08-23T02:03:22;18.50;99.90
9941;DHT22;5009;50.656;7.188;2022-08-23T02:05:48;18.60;99.90
9941;DHT22;5009;50.656;7.188;2022-08-23T02:08:13;18.60;99.90
9941;DHT22;5009;50.656;7.188;2022-08-23T02:10:58;18.60;99.90
9941;DHT22;5009;50.656;7.188;2022-08-23T02:13:23;18.50;99.90
9941;DHT22;5009;50.656;7.188;2022-08-23T02:15:50;18.50;99.90
9941;DHT22;5009;50.656;7.188;2022-08-23T02:18:18;18.50;99.90
9941;DHT22;5009;50.656;7.188;2022-08-23T02:20:49;18.40;99.90
9941;DHT22;5009;50.656;7.188;2022-08-23T02:23:16;18.40;99.90
9941;DHT22;5009;50.656;7.188;2022-08-23T02:25:42;18.50;99.90
9941;DHT22;5009;50.656;7.188;2022-08-23T02:28:08;18.40;99.90
9941;DHT22;5009;50.656;7.188;2022-08-23T02:30:34;18.30;99.90
9941;DHT22;5009;50.656;7.188;2022-08-23T02:32:59;18.30;99.90
9941;DHT22;5009;50.656;7.188;2022-08-23T02:35:25;18.20;99.90
9941;DHT22;5009;50.656;7.188;2022-08-23T02:37:51;18.10;99.90
9941;DHT22;5009;50.656;7.188;2022-08-23T02:40:19;18.10;99.90
9941;DHT22;5009;50.656;7.188;2022-08-23T02:42:46;18.10;99.90
9941;DHT22;5009;50.656;7.188;2022-08-23T02:45:12;18.10;99.90
9941;DHT22;5009;50.656;7.188;2022-08-23T02:47:38;18.20;99.90
9941;DHT22;5009;50.656;7.188;2022-08-23T02:50:06;18.10;99.90
9941;DHT22;5009;50.656;7.188;2022-08-23T02:52:32;18.20;99.90
9941;DHT22;5009;50.656;7.188;2022-08-23T02:54:58;18.20;99.90
9941;DHT22;5009;50.656;7.188;2022-08-23T02:57:25;18.10;99.90
9941;DHT22;5009;50.656;7.188;2022-08-23T02:59:51;18.00;99.90
9941;DHT22;5009;50.656;7.188;2022-08-23T03:02:17;17.90;99.90
9941;DHT22;5009;50.656;7.188;2022-08-23T03:04:43;17.90;99.90
9941;DHT22;5009;50.656;7.188;2022-08-23T03:07:09;17.80;99.90
9941;DHT22;5009;50.656;7.188;2022-08-23T03:09:34;17.80;99.90
9941;DHT22;5009;50.656;7.188;2022-08-23T03:12:00;17.80;99.90
9941;DHT22;5009;50.656;7.188;2022-08-23T03:14:25;17.80;99.90
9941;DHT22;5009;50.656;7.188;2022-08-23T03:16:52;17.80;99.90
9941;DHT22;5009;50.656;7.188;2022-08-23T03:19:18;17.80;99.90
9941;DHT22;5009;50.656;7.188;2022-08-23T03:21:43;17.80;99.90
9941;DHT22;5009;50.656;7.188;2022-08-23T03:24:09;17.80;99.90
9941;DHT22;5009;50.656;7.188;2022-08-23T03:26:35;17.70;99.90
9941;DHT22;5009;50.656;7.188;2022-08-23T03:29:01;17.70;99.90
9941;DHT22;5009;50.656;7.188;2022-08-23T03:31:27;17.60;99.90
9941;DHT22;5009;50.656;7.188;2022-08-23T03:33:52;17.60;99.90
9941;DHT22;5009;50.656;7.188;2022-08-23T03:36:19;17.60;99.90
9941;DHT22;5009;50.656;7.188;2022-08-23T03:38:45;17.50;99.90
9941;DHT22;5009;50.656;7.188;2022-08-23T03:41:11;17.50;99.90
9941;DHT22;5009;50.656;7.188;2022-08-23T03:43:37;17.40;99.90
9941;DHT22;5009;50.656;7.188;2022-08-23T03:46:03;17.40;99.90
9941;DHT22;5009;50.656;7.188;2022-08-23T03:48:29;17.40;99.90
9941;DHT22;5009;50.656;7.188;2022-08-23T03:50:54;17.30;99.90
9941;DHT22;5009;50.656;7.188;2022-08-23T03:53:20;17.30;99.90
9941;DHT22;5009;50.656;7.188;2022-08-23T03:55:48;17.20;99.90
9941;DHT22;5009;50.656;7.188;2022-08-23T03:58:14;17.20;99.90
9941;DHT22;5009;50.656;7.188;2022-08-23T04:00:39;17.20;99.90
9941;DHT22;5009;50.656;7.188;2022-08-23T04:03:05;17.20;99.90
9941;DHT22;5009;50.656;7.188;2022-08-23T04:05:30;17.20;99.90
9941;DHT22;5009;50.656;7.188;2022-08-23T04:07:56;17.30;99.90
9941;DHT22;5009;50.656;7.188;2022-08-23T04:10:21;17.20;99.90
9941;DHT22;5009;50.656;7.188;2022-08-23T04:12:47;17.20;99.90
9941;DHT22;5009;50.656;7.188;2022-08-23T04:15:12;17.20;99.90
9941;DHT22;5009;50.656;7.188;2022-08-23T04:17:38;17.10;99.90
9941;DHT22;5009;50.656;7.188;2022-08-23T04:20:05;17.10;99.90
9941;DHT22;5009;50.656;7.188;2022-08-23T04:22:31;17.10;99.90
9941;DHT22;5009;50.656;7.188;2022-08-23T04:24:58;17.10;99.90
9941;DHT22;5009;50.656;7.188;2022-08-23T04:27:23;17.00;99.90
9941;DHT22;5009;50.656;7.188;2022-08-23T04:29:49;16.90;99.90
9941;DHT22;5009;50.656;7.188;2022-08-23T04:32:15;17.00;99.90
9941;DHT22;5009;50.656;7.188;2022-08-23T04:34:40;16.90;99.90
9941;DHT22;5009;50.656;7.188;2022-08-23T04:37:08;17.00;99.90
9941;DHT22;5009;50.656;7.188;2022-08-23T04:39:34;17.00;99.90
9941;DHT22;5009;50.656;7.188;2022-08-23T04:42:20;17.10;99.90
9941;DHT22;5009;50.656;7.188;2022-08-23T04:44:47;17.10;99.90
9941;DHT22;5009;50.656;7.188;2022-08-23T04:47:13;17.20;99.90
9941;DHT22;5009;50.656;7.188;2022-08-23T04:49:38;17.20;99.90
9941;DHT22;5009;50.656;7.188;2022-08-23T04:52:04;17.20;99.90
9941;DHT22;5009;50.656;7.188;2022-08-23T04:54:29;17.20;99.90
9941;DHT22;5009;50.656;7.188;2022-08-23T04:56:56;17.20;99.90
9941;DHT22;5009;50.656;7.188;2022-08-23T04:59:21;17.10;99.90
9941;DHT22;5009;50.656;7.188;2022-08-23T05:01:47;17.10;99.90
9941;DHT22;5009;50.656;7.188;2022-08-23T05:04:13;17.10;99.90
9941;DHT22;5009;50.656;7.188;2022-08-23T05:06:39;17.20;99.90
9941;DHT22;5009;50.656;7.188;2022-08-23T05:09:05;17.10;99.90
9941;DHT22;5009;50.656;7.188;2022-08-23T05:11:31;17.10;99.90
9941;DHT22;5009;50.656;7.188;2022-08-23T05:13:56;17.20;99.90
9941;DHT22;5009;50.656;7.188;2022-08-23T05:16:22;17.30;99.90
9941;DHT22;5009;50.656;7.188;2022-08-23T05:18:48;17.30;99.90
9941;DHT22;5009;50.656;7.188;2022-08-23T05:21:19;17.50;99.90
9941;DHT22;5009;50.656;7.188;2022-08-23T05:23:45;17.50;99.90
9941;DHT22;5009;50.656;7.188;2022-08-23T05:26:11;17.50;99.90
9941;DHT22;5009;50.656;7.188;2022-08-23T05:28:40;17.60;99.90
9941;DHT22;5009;50.656;7.188;2022-08-23T05:31:22;17.60;99.90
9941;DHT22;5009;50.656;7.188;2022-08-23T05:33:48;17.60;99.90
9941;DHT22;5009;50.656;7.188;2022-08-23T05:36:15;17.70;99.90
9941;DHT22;5009;50.656;7.188;2022-08-23T05:38:42;17.80;99.90
9941;DHT22;5009;50.656;7.188;2022-08-23T05:41:09;18.00;99.90
9941;DHT22;5009;50.656;7.188;2022-08-23T05:43:35;18.10;99.90
9941;DHT22;5009;50.656;7.188;2022-08-23T05:46:13;18.20;99.90
9941;DHT22;5009;50.656;7.188;2022-08-23T05:48:40;18.30;99.90
9941;DHT22;5009;50.656;7.188;2022-08-23T05:51:27;18.50;99.90
9941;DHT22;5009;50.656;7.188;2022-08-23T05:53:55;18.70;99.90
9941;DHT22;5009;50.656;7.188;2022-08-23T05:56:24;18.70;99.90
9941;DHT22;5009;50.656;7.188;2022-08-23T05:58:51;19.00;99.90
9941;DHT22;5009;50.656;7.188;2022-08-23T06:01:18;19.40;99.90
9941;DHT22;5009;50.656;7.188;2022-08-23T06:03:45;19.90;99.90
9941;DHT22;5009;50.656;7.188;2022-08-23T06:06:11;20.40;98.30
9941;DHT22;5009;50.656;7.188;2022-08-23T06:08:38;21.40;95.90
9941;DHT22;5009;50.656;7.188;2022-08-23T06:11:12;22.40;93.70
9941;DHT22;5009;50.656;7.188;2022-08-23T06:13:44;23.50;91.50
9941;DHT22;5009;50.656;7.188;2022-08-23T06:16:11;25.00;86.50
9941;DHT22;5009;50.656;7.188;2022-08-23T06:18:38;26.70;80.80
9941;DHT22;5009;50.656;7.188;2022-08-23T06:21:06;28.30;73.40
9941;DHT22;5009;50.656;7.188;2022-08-23T06:23:32;29.20;65.90
9941;DHT22;5009;50.656;7.188;2022-08-23T06:25:59;29.20;61.60
9941;DHT22;5009;50.656;7.188;2022-08-23T06:28:27;28.50;61.30
9941;DHT22;5009;50.656;7.188;2022-08-23T06:30:55;27.40;62.50
9941;DHT22;5009;50.656;7.188;2022-08-23T06:33:21;27.10;64.80
9941;DHT22;5009;50.656;7.188;2022-08-23T06:35:47;26.90;66.30
9941;DHT22;5009;50.656;7.188;2022-08-23T06:38:13;26.40;66.60
9941;DHT22;5009;50.656;7.188;2022-08-23T06:40:39;25.70;69.30
9941;DHT22;5009;50.656;7.188;2022-08-23T06:43:04;25.80;69.80
9941;DHT22;5009;50.656;7.188;2022-08-23T06:45:30;26.10;69.80
9941;DHT22;5009;50.656;7.188;2022-08-23T06:47:56;27.20;68.00
9941;DHT22;5009;50.656;7.188;2022-08-23T06:50:22;28.60;64.50
9941;DHT22;5009;50.656;7.188;2022-08-23T06:52:48;29.80;59.90
9941;DHT22;5009;50.656;7.188;2022-08-23T06:55:14;29.80;58.30
9941;DHT22;5009;50.656;7.188;2022-08-23T06:57:39;29.80;57.90
9941;DHT22;5009;50.656;7.188;2022-08-23T07:00:06;30.40;57.50
9941;DHT22;5009;50.656;7.188;2022-08-23T07:02:32;30.90;56.00
9941;DHT22;5009;50.656;7.188;2022-08-23T07:04:58;32.50;54.40
9941;DHT22;5009;50.656;7.188;2022-08-23T07:07:24;32.80;52.90
9941;DHT22;5009;50.656;7.188;2022-08-23T07:09:49;33.00;51.60
9941;DHT22;5009;50.656;7.188;2022-08-23T07:12:15;33.30;50.60
9941;DHT22;5009;50.656;7.188;2022-08-23T07:14:42;34.60;49.60
9941;DHT22;5009;50.656;7.188;2022-08-23T07:17:08;35.90;48.00
9941;DHT22;5009;50.656;7.188;2022-08-23T07:19:34;36.70;46.00
9941;DHT22;5009;50.656;7.188;2022-08-23T07:22:01;37.40;44.50
9941;DHT22;5009;50.656;7.188;2022-08-23T07:24:27;37.70;42.90
9941;DHT22;5009;50.656;7.188;2022-08-23T07:26:53;38.60;42.10
9941;DHT22;5009;50.656;7.188;2022-08-23T07:29:20;39.50;41.20
9941;DHT22;5009;50.656;7.188;2022-08-23T07:31:52;40.20;39.60
9941;DHT22;5009;50.656;7.188;2022-08-23T07:34:19;40.60;38.70
9941;DHT22;5009;50.656;7.188;2022-08-23T07:36:49;41.20;38.30
9941;DHT22;5009;50.656;7.188;2022-08-23T07:39:16;42.00;37.80
9941;DHT22;5009;50.656;7.188;2022-08-23T07:41:42;41.90;37.10
9941;DHT22;5009;50.656;7.188;2022-08-23T07:44:10;42.20;36.60
9941;DHT22;5009;50.656;7.188;2022-08-23T07:46:38;42.00;35.80
9941;DHT22;5009;50.656;7.188;2022-08-23T07:49:05;41.60;35.40
9941;DHT22;5009;50.656;7.188;2022-08-23T07:51:33;40.40;35.40
9941;DHT22;5009;50.656;7.188;2022-08-23T07:54:02;40.10;35.60
9941;DHT22;5009;50.656;7.188;2022-08-23T07:56:28;40.00;35.90
9941;DHT22;5009;50.656;7.188;2022-08-23T07:58:54;38.10;35.40
9941;DHT22;5009;50.656;7.188;2022-08-23T08:01:23;37.90;36.30
9941;DHT22;5009;50.656;7.188;2022-08-23T08:03:50;37.40;36.40
9941;DHT22;5009;50.656;7.188;2022-08-23T08:06:28;36.70;36.60
9941;DHT22;5009;50.656;7.188;2022-08-23T08:08:55;36.00;36.70
9941;DHT22;5009;50.656;7.188;2022-08-23T08:11:22;35.80;37.10
9941;DHT22;5009;50.656;7.188;2022-08-23T08:13:50;35.80;36.80
9941;DHT22;5009;50.656;7.188;2022-08-23T08:16:31;35.80;36.90
9941;DHT22;5009;50.656;7.188;2022-08-23T08:18:59;35.60;36.90
9941;DHT22;5009;50.656;7.188;2022-08-23T08:21:25;35.40;36.60
9941;DHT22;5009;50.656;7.188;2022-08-23T08:23:52;35.40;36.80
9941;DHT22;5009;50.656;7.188;2022-08-23T08:26:17;35.60;37.20
9941;DHT22;5009;50.656;7.188;2022-08-23T08:28:44;35.20;37.00
9941;DHT22;5009;50.656;7.188;2022-08-23T08:31:10;35.40;37.40
9941;DHT22;5009;50.656;7.188;2022-08-23T08:33:36;35.30;37.40
9941;DHT22;5009;50.656;7.188;2022-08-23T08:36:02;34.40;37.00
9941;DHT22;5009;50.656;7.188;2022-08-23T08:38:28;33.90;37.20
9941;DHT22;5009;50.656;7.188;2022-08-23T08:41:10;33.70;37.70
9941;DHT22;5009;50.656;7.188;2022-08-23T08:44:00;33.30;38.00
9941;DHT22;5009;50.656;7.188;2022-08-23T08:49:03;32.30;38.60
9941;DHT22;5009;50.656;7.188;2022-08-23T08:54:20;31.90;39.10
9941;DHT22;5009;50.656;7.188;2022-08-23T08:56:51;31.70;39.10
9941;DHT22;5009;50.656;7.188;2022-08-23T08:59:21;31.70;39.10
9941;DHT22;5009;50.656;7.188;2022-08-23T09:01:47;31.80;39.10
9941;DHT22;5009;50.656;7.188;2022-08-23T09:04:13;31.80;39.00
9941;DHT22;5009;50.656;7.188;2022-08-23T09:19:48;31.30;39.60
9941;DHT22;5009;50.656;7.188;2022-08-23T09:22:22;31.20;39.80
9941;DHT22;5009;50.656;7.188;2022-08-23T09:24:49;30.80;40.00
9941;DHT22;5009;50.656;7.188;2022-08-23T09:27:15;31.00;40.40
9941;DHT22;5009;50.656;7.188;2022-08-23T09:29:55;30.80;40.50
9941;DHT22;5009;50.656;7.188;2022-08-23T09:32:31;30.90;40.50
9941;DHT22;5009;50.656;7.188;2022-08-23T09:37:59;31.30;40.80
9941;DHT22;5009;50.656;7.188;2022-08-23T09:40:50;31.10;40.50
9941;DHT22;5009;50.656;7.188;2022-08-23T09:43:22;31.10;40.80
9941;DHT22;5009;50.656;7.188;2022-08-23T09:51:17;31.30;41.10
9941;DHT22;5009;50.656;7.188;2022-08-23T09:53:48;31.20;40.90
9941;DHT22;5009;50.656;7.188;2022-08-23T09:56:24;31.10;40.70
9941;DHT22;5009;50.656;7.188;2022-08-23T09:58:51;31.00;40.90
9941;DHT22;5009;50.656;7.188;2022-08-23T10:01:23;31.00;41.00
9941;DHT22;5009;50.656;7.188;2022-08-23T10:06:31;31.00;41.20
9941;DHT22;5009;50.656;7.188;2022-08-23T10:08:59;31.00;41.20
9941;DHT22;5009;50.656;7.188;2022-08-23T10:11:33;30.90;41.30
9941;DHT22;5009;50.656;7.188;2022-08-23T10:14:00;30.80;41.30
9941;DHT22;5009;50.656;7.188;2022-08-23T10:19:13;30.60;41.20
9941;DHT22;5009;50.656;7.188;2022-08-23T10:21:49;30.60;41.50
9941;DHT22;5009;50.656;7.188;2022-08-23T10:24:33;30.60;41.80
9941;DHT22;5009;50.656;7.188;2022-08-23T10:27:45;30.30;40.80
9941;DHT22;5009;50.656;7.188;2022-08-23T10:33:25;30.30;41.40
9941;DHT22;5009;50.656;7.188;2022-08-23T10:38:36;30.40;41.80
9941;DHT22;5009;50.656;7.188;2022-08-23T10:41:31;30.30;41.40
9941;DHT22;5009;50.656;7.188;2022-08-23T10:49:40;30.30;40.80
9941;DHT22;5009;50.656;7.188;2022-08-23T10:52:09;30.20;40.70
9941;DHT22;5009;50.656;7.188;2022-08-23T10:54:47;30.10;41.20
9941;DHT22;5009;50.656;7.188;2022-08-23T10:57:30;30.10;41.10
9941;DHT22;5009;50.656;7.188;2022-08-23T10:59:56;30.00;40.60
9941;DHT22;5009;50.656;7.188;2022-08-23T11:05:27;30.00;40.10
9941;DHT22;5009;50.656;7.188;2022-08-23T11:08:09;29.90;40.00
9941;DHT22;5009;50.656;7.188;2022-08-23T11:15:44;29.90;40.50
9941;DHT22;5009;50.656;7.188;2022-08-23T11:21:09;29.70;40.60
9941;DHT22;5009;50.656;7.188;2022-08-23T11:23:51;29.70;40.70
9941;DHT22;5009;50.656;7.188;2022-08-23T11:28:48;29.70;41.00
9941;DHT22;5009;50.656;7.188;2022-08-23T11:33:50;29.80;40.80
9941;DHT22;5009;50.656;7.188;2022-08-23T11:36:22;29.80;40.70
9941;DHT22;5009;50.656;7.188;2022-08-23T11:41:27;30.20;40.50
9941;DHT22;5009;50.656;7.188;2022-08-23T11:46:47;30.30;40.30
9941;DHT22;5009;50.656;7.188;2022-08-23T11:49:27;30.40;40.10
9941;DHT22;5009;50.656;7.188;2022-08-23T12:03:31;30.70;40.10
9941;DHT22;5009;50.656;7.188;2022-08-23T12:19:51;30.50;40.60
9941;DHT22;5009;50.656;7.188;2022-08-23T12:22:25;30.60;40.60
9941;DHT22;5009;50.656;7.188;2022-08-23T12:27:34;30.60;40.20
9941;DHT22;5009;50.656;7.188;2022-08-23T12:30:12;30.60;40.10
9941;DHT22;5009;50.656;7.188;2022-08-23T12:40:47;30.50;40.10
9941;DHT22;5009;50.656;7.188;2022-08-23T12:43:24;30.40;40.30
9941;DHT22;5009;50.656;7.188;2022-08-23T12:45:54;30.40;40.10
9941;DHT22;5009;50.656;7.188;2022-08-23T12:48:31;30.50;40.40
9941;DHT22;5009;50.656;7.188;2022-08-23T12:51:01;30.60;40.30
9941;DHT22;5009;50.656;7.188;2022-08-23T12:53:31;30.70;40.40
9941;DHT22;5009;50.656;7.188;2022-08-23T12:56:04;30.70;40.00
9941;DHT22;5009;50.656;7.188;2022-08-23T12:58:33;30.70;40.10
9941;DHT22;5009;50.656;7.188;2022-08-23T13:01:03;30.70;40.30
9941;DHT22;5009;50.656;7.188;2022-08-23T13:03:37;30.70;40.00
9941;DHT22;5009;50.656;7.188;2022-08-23T13:06:21;30.60;40.10
9941;DHT22;5009;50.656;7.188;2022-08-23T13:08:53;30.60;40.00
9941;DHT22;5009;50.656;7.188;2022-08-23T13:11:22;30.70;40.20
9941;DHT22;5009;50.656;7.188;2022-08-23T13:13:49;30.70;39.90
9941;DHT22;5009;50.656;7.188;2022-08-23T13:22:12;30.90;39.90
9941;DHT22;5009;50.656;7.188;2022-08-23T13:24:43;30.90;40.20
9941;DHT22;5009;50.656;7.188;2022-08-23T13:35:32;30.90;39.10
9941;DHT22;5009;50.656;7.188;2022-08-23T13:40:57;30.60;40.00
9941;DHT22;5009;50.656;7.188;2022-08-23T13:43:36;30.70;40.30
9941;DHT22;5009;50.656;7.188;2022-08-23T13:46:25;30.80;40.40
9941;DHT22;5009;50.656;7.188;2022-08-23T13:48:58;30.90;40.60
9941;DHT22;5009;50.656;7.188;2022-08-23T13:51:31;30.90;40.30
9941;DHT22;5009;50.656;7.188;2022-08-23T13:54:00;31.00;40.20
9941;DHT22;5009;50.656;7.188;2022-08-23T13:56:27;31.10;40.10
9941;DHT22;5009;50.656;7.188;2022-08-23T13:59:06;31.20;40.10
9941;DHT22;5009;50.656;7.188;2022-08-23T14:01:38;31.20;39.10
9941;DHT22;5009;50.656;7.188;2022-08-23T14:04:04;31.30;39.60
9941;DHT22;5009;50.656;7.188;2022-08-23T14:06:29;31.30;39.30
9941;DHT22;5009;50.656;7.188;2022-08-23T14:08:55;31.30;39.70
9941;DHT22;5009;50.656;7.188;2022-08-23T14:11:20;31.40;39.80
9941;DHT22;5009;50.656;7.188;2022-08-23T14:13:47;31.50;39.80
9941;DHT22;5009;50.656;7.188;2022-08-23T14:16:34;31.50;39.90
9941;DHT22;5009;50.656;7.188;2022-08-23T14:19:03;31.50;39.90
9941;DHT22;5009;50.656;7.188;2022-08-23T14:21:29;31.50;39.80
9941;DHT22;5009;50.656;7.188;2022-08-23T14:23:54;31.30;39.60
9941;DHT22;5009;50.656;7.188;2022-08-23T14:26:20;31.40;39.60
9941;DHT22;5009;50.656;7.188;2022-08-23T14:28:48;31.30;39.40
9941;DHT22;5009;50.656;7.188;2022-08-23T14:31:14;31.30;39.20
9941;DHT22;5009;50.656;7.188;2022-08-23T14:33:39;31.40;39.40
9941;DHT22;5009;50.656;7.188;2022-08-23T14:36:05;31.50;39.60
9941;DHT22;5009;50.656;7.188;2022-08-23T14:38:32;31.50;40.00
9941;DHT22;5009;50.656;7.188;2022-08-23T14:41:01;31.60;39.90
9941;DHT22;5009;50.656;7.188;2022-08-23T14:43:28;31.60;39.90
9941;DHT22;5009;50.656;7.188;2022-08-23T14:45:55;31.70;39.50
9941;DHT22;5009;50.656;7.188;2022-08-23T14:48:22;31.70;39.50
9941;DHT22;5009;50.656;7.188;2022-08-23T14:50:48;31.70;39.70
9941;DHT22;5009;50.656;7.188;2022-08-23T14:53:16;31.70;39.80
9941;DHT22;5009;50.656;7.188;2022-08-23T14:55:42;31.70;39.70
9941;DHT22;5009;50.656;7.188;2022-08-23T14:58:08;31.70;39.70
9941;DHT22;5009;50.656;7.188;2022-08-23T15:00:34;31.70;39.70
9941;DHT22;5009;50.656;7.188;2022-08-23T15:03:02;31.60;39.90
9941;DHT22;5009;50.656;7.188;2022-08-23T15:05:29;31.60;39.90
9941;DHT22;5009;50.656;7.188;2022-08-23T15:07:55;31.60;39.80
9941;DHT22;5009;50.656;7.188;2022-08-23T15:10:20;31.60;40.00
9941;DHT22;5009;50.656;7.188;2022-08-23T15:12:46;31.60;40.00
9941;DHT22;5009;50.656;7.188;2022-08-23T15:15:14;31.60;40.10
9941;DHT22;5009;50.656;7.188;2022-08-23T15:18:00;31.60;40.10
9941;DHT22;5009;50.656;7.188;2022-08-23T15:20:34;31.70;39.80
9941;DHT22;5009;50.656;7.188;2022-08-23T15:23:00;31.80;39.80
9941;DHT22;5009;50.656;7.188;2022-08-23T15:25:31;31.80;39.80
9941;DHT22;5009;50.656;7.188;2022-08-23T15:27:58;31.80;39.90
9941;DHT22;5009;50.656;7.188;2022-08-23T15:30:24;31.90;40.10
9941;DHT22;5009;50.656;7.188;2022-08-23T15:32:49;32.00;40.00
9941;DHT22;5009;50.656;7.188;2022-08-23T15:35:15;32.00;40.00
9941;DHT22;5009;50.656;7.188;2022-08-23T15:37:41;32.00;40.10
9941;DHT22;5009;50.656;7.188;2022-08-23T15:40:08;32.00;40.00
9941;DHT22;5009;50.656;7.188;2022-08-23T15:42:33;32.10;39.90
9941;DHT22;5009;50.656;7.188;2022-08-23T15:44:59;32.10;39.80
9941;DHT22;5009;50.656;7.188;2022-08-23T15:47:27;32.00;40.00
9941;DHT22;5009;50.656;7.188;2022-08-23T15:49:53;31.90;40.00
9941;DHT22;5009;50.656;7.188;2022-08-23T15:52:20;31.90;40.30
9941;DHT22;5009;50.656;7.188;2022-08-23T15:54:46;31.80;40.30
9941;DHT22;5009;50.656;7.188;2022-08-23T15:57:23;31.70;40.30
9941;DHT22;5009;50.656;7.188;2022-08-23T15:59:49;31.60;40.30
9941;DHT22;5009;50.656;7.188;2022-08-23T16:02:15;31.60;40.50
9941;DHT22;5009;50.656;7.188;2022-08-23T16:04:40;31.50;40.30
9941;DHT22;5009;50.656;7.188;2022-08-23T16:07:13;31.50;40.20
9941;DHT22;5009;50.656;7.188;2022-08-23T16:09:39;31.50;40.40
9941;DHT22;5009;50.656;7.188;2022-08-23T16:12:06;31.50;40.60
9941;DHT22;5009;50.656;7.188;2022-08-23T16:14:32;31.40;40.90
9941;DHT22;5009;50.656;7.188;2022-08-23T16:16:59;31.40;41.00
9941;DHT22;5009;50.656;7.188;2022-08-23T16:19:25;31.30;41.00
9941;DHT22;5009;50.656;7.188;2022-08-23T16:21:51;31.20;40.90
9941;DHT22;5009;50.656;7.188;2022-08-23T16:24:19;31.20;41.00
9941;DHT22;5009;50.656;7.188;2022-08-23T16:26:45;31.10;41.00
9941;DHT22;5009;50.656;7.188;2022-08-23T16:29:14;31.10;41.20
9941;DHT22;5009;50.656;7.188;2022-08-23T16:31:41;31.00;41.30
9941;DHT22;5009;50.656;7.188;2022-08-23T16:34:15;31.00;41.20
9941;DHT22;5009;50.656;7.188;2022-08-23T16:36:45;31.00;41.30
9941;DHT22;5009;50.656;7.188;2022-08-23T16:39:12;30.90;41.40
9941;DHT22;5009;50.656;7.188;2022-08-23T16:41:38;30.90;41.70
9941;DHT22;5009;50.656;7.188;2022-08-23T16:44:04;30.90;42.10
9941;DHT22;5009;50.656;7.188;2022-08-23T16:46:30;30.70;42.90
9941;DHT22;5009;50.656;7.188;2022-08-23T16:48:56;30.60;42.80
9941;DHT22;5009;50.656;7.188;2022-08-23T16:51:22;30.50;43.10
9941;DHT22;5009;50.656;7.188;2022-08-23T16:53:48;30.50;43.80
9941;DHT22;5009;50.656;7.188;2022-08-23T16:56:14;30.40;43.80
9941;DHT22;5009;50.656;7.188;2022-08-23T16:58:40;30.20;44.20
9941;DHT22;5009;50.656;7.188;2022-08-23T17:01:11;30.10;44.40
9941;DHT22;5009;50.656;7.188;2022-08-23T17:03:41;30.10;44.60
9941;DHT22;5009;50.656;7.188;2022-08-23T17:06:08;30.00;44.80
9941;DHT22;5009;50.656;7.188;2022-08-23T17:08:33;29.90;45.20
9941;DHT22;5009;50.656;7.188;2022-08-23T17:10:59;29.90;45.40
9941;DHT22;5009;50.656;7.188;2022-08-23T17:13:25;29.80;45.60
9941;DHT22;5009;50.656;7.188;2022-08-23T17:15:51;29.80;45.80
9941;DHT22;5009;50.656;7.188;2022-08-23T17:18:17;29.80;45.90
9941;DHT22;5009;50.656;7.188;2022-08-23T17:20:42;29.70;45.90
9941;DHT22;5009;50.656;7.188;2022-08-23T17:23:08;29.70;46.60
9941;DHT22;5009;50.656;7.188;2022-08-23T17:25:36;29.50;47.30
9941;DHT22;5009;50.656;7.188;2022-08-23T17:28:03;29.40;47.30
9941;DHT22;5009;50.656;7.188;2022-08-23T17:30:29;29.40;47.60
9941;DHT22;5009;50.656;7.188;2022-08-23T17:32:55;29.30;47.90
9941;DHT22;5009;50.656;7.188;2022-08-23T17:35:26;29.20;48.40
9941;DHT22;5009;50.656;7.188;2022-08-23T17:37:52;29.00;48.50
9941;DHT22;5009;50.656;7.188;2022-08-23T17:40:22;29.00;48.50
9941;DHT22;5009;50.656;7.188;2022-08-23T17:42:48;28.90;48.60
9941;DHT22;5009;50.656;7.188;2022-08-23T17:45:14;28.80;48.80
9941;DHT22;5009;50.656;7.188;2022-08-23T17:47:40;28.70;48.80
9941;DHT22;5009;50.656;7.188;2022-08-23T17:50:06;28.70;48.80
9941;DHT22;5009;50.656;7.188;2022-08-23T17:52:32;28.70;48.80
9941;DHT22;5009;50.656;7.188;2022-08-23T17:54:58;28.60;49.00
9941;DHT22;5009;50.656;7.188;2022-08-23T17:57:24;28.60;49.20
9941;DHT22;5009;50.656;7.188;2022-08-23T17:59:49;28.50;49.20
9941;DHT22;5009;50.656;7.188;2022-08-23T18:02:16;28.50;49.50
9941;DHT22;5009;50.656;7.188;2022-08-23T18:04:42;28.40;49.70
9941;DHT22;5009;50.656;7.188;2022-08-23T18:07:08;28.30;49.70
9941;DHT22;5009;50.656;7.188;2022-08-23T18:09:34;28.30;49.80
9941;DHT22;5009;50.656;7.188;2022-08-23T18:12:00;28.30;49.80
9941;DHT22;5009;50.656;7.188;2022-08-23T18:14:26;28.20;49.80